sensor_id;sensor_type;location;lat;lon;timestamp;P1;durP1;ratioP1;P2;durP2;ratioP2
28822;SDS011;15961;54.678;9.110;2024-03-29T00:01:55;18.33;;;9.25;;
28822;SDS011;15961;54.678;9.110;2024-03-29T00:04:41;20.13;;;7.97;;
28822;SDS011;15961;54.678;9.110;2024-03-29T00:07:26;20.92;;;8.38;;
28822;SDS011;15961;54.678;9.110;2024-03-29T00:10:12;17.35;;;9.68;;
28822;SDS011;15961;54.678;9.110;2024-03-29T00:12:58;16.33;;;7.38;;
28822;SDS011;15961;54.678;9.110;2024-03-29T00:15:45;10.93;;;7.03;;
28822;SDS011;15961;54.678;9.110;2024-03-29T00:18:31;13.13;;;6.45;;
28822;SDS011;15961;54.678;9.110;2024-03-29T00:21:17;14.60;;;5.85;;
28822;SDS011;15961;54.678;9.110;2024-03-29T00:24:02;11.02;;;6.15;;
28822;SDS011;15961;54.678;9.110;2024-03-29T00:26:48;8.35;;;4.55;;
28822;SDS011;15961;54.678;9.110;2024-03-29T00:29:34;12.43;;;5.47;;
28822;SDS011;15961;54.678;9.110;2024-03-29T00:32:20;9.20;;;4.65;;
28822;SDS011;15961;54.678;9.110;2024-03-29T00:35:07;7.28;;;4.60;;
28822;SDS011;15961;54.678;9.110;2024-03-29T00:37:53;7.03;;;3.63;;
28822;SDS011;15961;54.678;9.110;2024-03-29T00:40:38;10.85;;;3.72;;
28822;SDS011;15961;54.678;9.110;2024-03-29T00:43:24;5.07;;;3.63;;
28822;SDS011;15961;54.678;9.110;2024-03-29T00:46:10;5.38;;;3.83;;
28822;SDS011;15961;54.678;9.110;2024-03-29T00:48:55;4.60;;;3.40;;
28822;SDS011;15961;54.678;9.110;2024-03-29T00:51:41;7.15;;;3.35;;
28822;SDS011;15961;54.678;9.110;2024-03-29T00:54:26;3.40;;;2.70;;
28822;SDS011;15961;54.678;9.110;2024-03-29T00:57:12;6.13;;;3.33;;
28822;SDS011;15961;54.678;9.110;2024-03-29T00:59:59;9.82;;;3.72;;
28822;SDS011;15961;54.678;9.110;2024-03-29T01:02:45;6.85;;;3.00;;
28822;SDS011;15961;54.678;9.110;2024-03-29T01:05:31;4.53;;;3.20;;
28822;SDS011;15961;54.678;9.110;2024-03-29T01:08:16;5.85;;;3.13;;
28822;SDS011;15961;54.678;9.110;2024-03-29T01:11:02;5.88;;;2.95;;
28822;SDS011;15961;54.678;9.110;2024-03-29T01:13:47;5.55;;;3.05;;
28822;SDS011;15961;54.678;9.110;2024-03-29T01:16:33;6.28;;;3.28;;
28822;SDS011;15961;54.678;9.110;2024-03-29T01:19:19;3.90;;;2.95;;
28822;SDS011;15961;54.678;9.110;2024-03-29T01:22:04;5.15;;;3.33;;
28822;SDS011;15961;54.678;9.110;2024-03-29T01:24:50;7.03;;;3.30;;
28822;SDS011;15961;54.678;9.110;2024-03-29T01:27:35;6.43;;;3.30;;
28822;SDS011;15961;54.678;9.110;2024-03-29T01:30:21;7.95;;;3.35;;
28822;SDS011;15961;54.678;9.110;2024-03-29T01:33:07;4.03;;;2.70;;
28822;SDS011;15961;54.678;9.110;2024-03-29T01:35:53;3.55;;;2.97;;
28822;SDS011;15961;54.678;9.110;2024-03-29T01:38:39;5.22;;;3.00;;
28822;SDS011;15961;54.678;9.110;2024-03-29T01:41:24;6.95;;;3.60;;
28822;SDS011;15961;54.678;9.110;2024-03-29T01:44:13;4.10;;;3.08;;
28822;SDS011;15961;54.678;9.110;2024-03-29T01:46:59;5.55;;;3.20;;
28822;SDS011;15961;54.678;9.110;2024-03-29T01:49:45;7.40;;;3.47;;
28822;SDS011;15961;54.678;9.110;2024-03-29T01:52:31;8.90;;;3.05;;
28822;SDS011;15961;54.678;9.110;2024-03-29T01:55:17;3.50;;;2.28;;
28822;SDS011;15961;54.678;9.110;2024-03-29T01:58:02;6.35;;;3.13;;
28822;SDS011;15961;54.678;9.110;2024-03-29T02:00:50;7.63;;;2.50;;
28822;SDS011;15961;54.678;9.110;2024-03-29T02:03:38;9.10;;;3.05;;
28822;SDS011;15961;54.678;9.110;2024-03-29T02:06:24;7.45;;;3.90;;
28822;SDS011;15961;54.678;9.110;2024-03-29T02:09:10;7.88;;;3.00;;
28822;SDS011;15961;54.678;9.110;2024-03-29T02:11:56;3.25;;;2.70;;
28822;SDS011;15961;54.678;9.110;2024-03-29T02:14:42;3.38;;;2.80;;
28822;SDS011;15961;54.678;9.110;2024-03-29T02:17:28;6.13;;;3.33;;
28822;SDS011;15961;54.678;9.110;2024-03-29T02:20:13;4.20;;;2.55;;
28822;SDS011;15961;54.678;9.110;2024-03-29T02:23:03;8.30;;;2.47;;
28822;SDS011;15961;54.678;9.110;2024-03-29T02:25:52;4.50;;;2.63;;
28822;SDS011;15961;54.678;9.110;2024-03-29T02:28:37;4.30;;;2.58;;
28822;SDS011;15961;54.678;9.110;2024-03-29T02:31:23;3.50;;;2.53;;
28822;SDS011;15961;54.678;9.110;2024-03-29T02:34:09;5.32;;;3.63;;
28822;SDS011;15961;54.678;9.110;2024-03-29T02:36:55;5.22;;;2.72;;
28822;SDS011;15961;54.678;9.110;2024-03-29T02:39:42;4.13;;;2.85;;
28822;SDS011;15961;54.678;9.110;2024-03-29T02:42:27;4.95;;;2.65;;
28822;SDS011;15961;54.678;9.110;2024-03-29T02:45:13;4.22;;;2.83;;
28822;SDS011;15961;54.678;9.110;2024-03-29T02:47:59;6.93;;;2.80;;
28822;SDS011;15961;54.678;9.110;2024-03-29T02:50:44;6.57;;;2.85;;
28822;SDS011;15961;54.678;9.110;2024-03-29T02:53:30;4.30;;;3.10;;
28822;SDS011;15961;54.678;9.110;2024-03-29T02:56:16;7.60;;;2.90;;
28822;SDS011;15961;54.678;9.110;2024-03-29T02:59:06;4.05;;;2.90;;
28822;SDS011;15961;54.678;9.110;2024-03-29T03:01:52;7.53;;;3.63;;
28822;SDS011;15961;54.678;9.110;2024-03-29T03:04:37;7.07;;;2.67;;
28822;SDS011;15961;54.678;9.110;2024-03-29T03:07:23;6.38;;;2.53;;
28822;SDS011;15961;54.678;9.110;2024-03-29T03:10:27;5.03;;;3.30;;
28822;SDS011;15961;54.678;9.110;2024-03-29T03:13:31;5.10;;;3.83;;
28822;SDS011;15961;54.678;9.110;2024-03-29T03:16:17;4.20;;;3.05;;
28822;SDS011;15961;54.678;9.110;2024-03-29T03:19:03;4.97;;;2.28;;
28822;SDS011;15961;54.678;9.110;2024-03-29T03:21:50;7.30;;;2.60;;
28822;SDS011;15961;54.678;9.110;2024-03-29T03:24:36;6.55;;;2.90;;
28822;SDS011;15961;54.678;9.110;2024-03-29T03:27:21;6.18;;;3.17;;
28822;SDS011;15961;54.678;9.110;2024-03-29T03:30:08;6.78;;;2.42;;
28822;SDS011;15961;54.678;9.110;2024-03-29T03:32:54;3.20;;;2.72;;
28822;SDS011;15961;54.678;9.110;2024-03-29T03:35:41;3.08;;;2.45;;
28822;SDS011;15961;54.678;9.110;2024-03-29T03:38:29;4.85;;;3.03;;
28822;SDS011;15961;54.678;9.110;2024-03-29T03:41:16;4.78;;;3.20;;
28822;SDS011;15961;54.678;9.110;2024-03-29T03:44:01;9.13;;;3.10;;
28822;SDS011;15961;54.678;9.110;2024-03-29T03:46:47;3.60;;;2.78;;
28822;SDS011;15961;54.678;9.110;2024-03-29T03:49:33;6.63;;;3.17;;
28822;SDS011;15961;54.678;9.110;2024-03-29T03:52:18;5.60;;;3.25;;
28822;SDS011;15961;54.678;9.110;2024-03-29T03:55:04;6.70;;;4.47;;
28822;SDS011;15961;54.678;9.110;2024-03-29T03:57:50;5.20;;;2.30;;
28822;SDS011;15961;54.678;9.110;2024-03-29T04:00:37;9.45;;;3.95;;
28822;SDS011;15961;54.678;9.110;2024-03-29T04:03:22;3.88;;;3.00;;
28822;SDS011;15961;54.678;9.110;2024-03-29T04:06:08;6.75;;;2.92;;
28822;SDS011;15961;54.678;9.110;2024-03-29T04:08:54;4.80;;;3.15;;
28822;SDS011;15961;54.678;9.110;2024-03-29T04:11:39;6.65;;;3.00;;
28822;SDS011;15961;54.678;9.110;2024-03-29T04:14:25;5.95;;;3.00;;
28822;SDS011;15961;54.678;9.110;2024-03-29T04:17:10;10.27;;;3.33;;
28822;SDS011;15961;54.678;9.110;2024-03-29T04:19:57;8.00;;;2.50;;
28822;SDS011;15961;54.678;9.110;2024-03-29T04:22:42;5.45;;;3.08;;
28822;SDS011;15961;54.678;9.110;2024-03-29T04:25:30;7.50;;;3.88;;
28822;SDS011;15961;54.678;9.110;2024-03-29T04:28:16;5.13;;;3.97;;
28822;SDS011;15961;54.678;9.110;2024-03-29T04:31:01;3.55;;;1.92;;
28822;SDS011;15961;54.678;9.110;2024-03-29T04:33:47;4.20;;;2.60;;
28822;SDS011;15961;54.678;9.110;2024-03-29T04:36:32;5.53;;;2.72;;
28822;SDS011;15961;54.678;9.110;2024-03-29T04:39:18;4.00;;;2.80;;
28822;SDS011;15961;54.678;9.110;2024-03-29T04:42:04;4.93;;;2.42;;
28822;SDS011;15961;54.678;9.110;2024-03-29T04:44:49;4.82;;;2.95;;
28822;SDS011;15961;54.678;9.110;2024-03-29T04:47:36;4.57;;;2.85;;
28822;SDS011;15961;54.678;9.110;2024-03-29T04:50:22;12.13;;;3.00;;
28822;SDS011;15961;54.678;9.110;2024-03-29T04:53:07;3.38;;;2.45;;
28822;SDS011;15961;54.678;9.110;2024-03-29T04:55:54;2.60;;;2.40;;
28822;SDS011;15961;54.678;9.110;2024-03-29T04:58:40;7.60;;;3.20;;
28822;SDS011;15961;54.678;9.110;2024-03-29T05:01:26;5.10;;;3.22;;
28822;SDS011;15961;54.678;9.110;2024-03-29T05:04:11;4.30;;;2.70;;
28822;SDS011;15961;54.678;9.110;2024-03-29T05:06:58;8.48;;;2.30;;
28822;SDS011;15961;54.678;9.110;2024-03-29T05:09:44;4.85;;;3.05;;
28822;SDS011;15961;54.678;9.110;2024-03-29T05:12:29;4.45;;;3.10;;
28822;SDS011;15961;54.678;9.110;2024-03-29T05:15:15;5.75;;;2.72;;
28822;SDS011;15961;54.678;9.110;2024-03-29T05:18:00;4.97;;;2.90;;
28822;SDS011;15961;54.678;9.110;2024-03-29T05:20:46;5.85;;;3.30;;
28822;SDS011;15961;54.678;9.110;2024-03-29T05:23:36;4.55;;;2.70;;
28822;SDS011;15961;54.678;9.110;2024-03-29T05:26:22;7.72;;;4.30;;
28822;SDS011;15961;54.678;9.110;2024-03-29T05:29:07;6.57;;;2.92;;
28822;SDS011;15961;54.678;9.110;2024-03-29T05:31:53;5.68;;;3.20;;
28822;SDS011;15961;54.678;9.110;2024-03-29T05:34:39;6.57;;;2.75;;
28822;SDS011;15961;54.678;9.110;2024-03-29T05:37:24;6.50;;;2.17;;
28822;SDS011;15961;54.678;9.110;2024-03-29T05:40:11;7.10;;;2.53;;
28822;SDS011;15961;54.678;9.110;2024-03-29T05:42:56;5.30;;;2.30;;
28822;SDS011;15961;54.678;9.110;2024-03-29T05:45:42;6.45;;;2.83;;
28822;SDS011;15961;54.678;9.110;2024-03-29T05:48:28;4.45;;;2.97;;
28822;SDS011;15961;54.678;9.110;2024-03-29T05:51:14;3.25;;;2.40;;
28822;SDS011;15961;54.678;9.110;2024-03-29T05:54:00;3.80;;;1.73;;
28822;SDS011;15961;54.678;9.110;2024-03-29T05:56:45;6.63;;;3.08;;
28822;SDS011;15961;54.678;9.110;2024-03-29T05:59:31;7.15;;;2.47;;
28822;SDS011;15961;54.678;9.110;2024-03-29T06:02:17;5.47;;;2.72;;
28822;SDS011;15961;54.678;9.110;2024-03-29T06:05:02;8.35;;;2.33;;
28822;SDS011;15961;54.678;9.110;2024-03-29T06:07:49;4.43;;;2.30;;
28822;SDS011;15961;54.678;9.110;2024-03-29T06:10:34;5.50;;;2.05;;
28822;SDS011;15961;54.678;9.110;2024-03-29T06:13:20;5.22;;;2.42;;
28822;SDS011;15961;54.678;9.110;2024-03-29T06:16:34;2.75;;;2.08;;
28822;SDS011;15961;54.678;9.110;2024-03-29T06:19:38;4.13;;;2.75;;
28822;SDS011;15961;54.678;9.110;2024-03-29T06:22:24;5.00;;;2.53;;
28822;SDS011;15961;54.678;9.110;2024-03-29T06:25:10;2.95;;;1.83;;
28822;SDS011;15961;54.678;9.110;2024-03-29T06:27:55;10.27;;;2.33;;
28822;SDS011;15961;54.678;9.110;2024-03-29T06:30:41;3.65;;;2.60;;
28822;SDS011;15961;54.678;9.110;2024-03-29T06:33:27;5.00;;;2.47;;
28822;SDS011;15961;54.678;9.110;2024-03-29T06:36:12;5.85;;;2.28;;
28822;SDS011;15961;54.678;9.110;2024-03-29T06:38:58;4.93;;;2.45;;
28822;SDS011;15961;54.678;9.110;2024-03-29T06:41:44;3.63;;;2.50;;
28822;SDS011;15961;54.678;9.110;2024-03-29T06:44:29;7.85;;;2.60;;
28822;SDS011;15961;54.678;9.110;2024-03-29T06:47:15;5.93;;;2.72;;
28822;SDS011;15961;54.678;9.110;2024-03-29T06:50:01;6.00;;;3.55;;
28822;SDS011;15961;54.678;9.110;2024-03-29T06:52:46;4.10;;;2.03;;
28822;SDS011;15961;54.678;9.110;2024-03-29T06:55:32;4.47;;;2.58;;
28822;SDS011;15961;54.678;9.110;2024-03-29T06:58:18;4.82;;;2.45;;
28822;SDS011;15961;54.678;9.110;2024-03-29T07:01:03;4.72;;;3.00;;
28822;SDS011;15961;54.678;9.110;2024-03-29T07:03:49;3.40;;;2.25;;
28822;SDS011;15961;54.678;9.110;2024-03-29T07:06:34;2.90;;;2.30;;
28822;SDS011;15961;54.678;9.110;2024-03-29T07:09:22;8.65;;;2.42;;
28822;SDS011;15961;54.678;9.110;2024-03-29T07:12:08;4.00;;;2.50;;
28822;SDS011;15961;54.678;9.110;2024-03-29T07:14:54;4.00;;;2.28;;
28822;SDS011;15961;54.678;9.110;2024-03-29T07:17:40;5.78;;;2.17;;
28822;SDS011;15961;54.678;9.110;2024-03-29T07:20:25;7.15;;;3.58;;
28822;SDS011;15961;54.678;9.110;2024-03-29T07:23:12;3.13;;;2.78;;
28822;SDS011;15961;54.678;9.110;2024-03-29T07:26:03;11.02;;;2.53;;
28822;SDS011;15961;54.678;9.110;2024-03-29T07:28:50;8.57;;;2.75;;
28822;SDS011;15961;54.678;9.110;2024-03-29T07:31:36;4.10;;;2.10;;
28822;SDS011;15961;54.678;9.110;2024-03-29T07:34:22;8.55;;;2.70;;
28822;SDS011;15961;54.678;9.110;2024-03-29T07:37:07;3.33;;;2.25;;
28822;SDS011;15961;54.678;9.110;2024-03-29T07:39:55;4.47;;;2.83;;
28822;SDS011;15961;54.678;9.110;2024-03-29T07:42:40;4.90;;;3.05;;
28822;SDS011;15961;54.678;9.110;2024-03-29T07:45:26;6.03;;;2.65;;
28822;SDS011;15961;54.678;9.110;2024-03-29T07:48:13;4.43;;;2.00;;
28822;SDS011;15961;54.678;9.110;2024-03-29T07:51:02;8.20;;;2.55;;
28822;SDS011;15961;54.678;9.110;2024-03-29T07:53:48;3.35;;;2.08;;
28822;SDS011;15961;54.678;9.110;2024-03-29T07:56:33;12.90;;;2.70;;
28822;SDS011;15961;54.678;9.110;2024-03-29T07:59:19;3.58;;;2.25;;
28822;SDS011;15961;54.678;9.110;2024-03-29T08:02:05;2.40;;;1.77;;
28822;SDS011;15961;54.678;9.110;2024-03-29T08:04:52;2.58;;;2.22;;
28822;SDS011;15961;54.678;9.110;2024-03-29T08:07:38;3.58;;;1.70;;
28822;SDS011;15961;54.678;9.110;2024-03-29T08:10:23;5.68;;;2.22;;
28822;SDS011;15961;54.678;9.110;2024-03-29T08:13:09;3.33;;;1.92;;
28822;SDS011;15961;54.678;9.110;2024-03-29T08:15:58;5.50;;;2.15;;
28822;SDS011;15961;54.678;9.110;2024-03-29T08:18:47;3.38;;;2.35;;
28822;SDS011;15961;54.678;9.110;2024-03-29T08:21:33;5.35;;;2.30;;
28822;SDS011;15961;54.678;9.110;2024-03-29T08:24:19;2.35;;;1.92;;
28822;SDS011;15961;54.678;9.110;2024-03-29T08:27:04;7.50;;;2.03;;
28822;SDS011;15961;54.678;9.110;2024-03-29T08:29:50;3.75;;;2.10;;
28822;SDS011;15961;54.678;9.110;2024-03-29T08:32:36;3.15;;;2.35;;
28822;SDS011;15961;54.678;9.110;2024-03-29T08:35:21;3.78;;;2.38;;
28822;SDS011;15961;54.678;9.110;2024-03-29T08:38:07;3.47;;;2.03;;
28822;SDS011;15961;54.678;9.110;2024-03-29T08:40:52;5.20;;;2.50;;
28822;SDS011;15961;54.678;9.110;2024-03-29T08:43:38;4.63;;;1.90;;
28822;SDS011;15961;54.678;9.110;2024-03-29T08:46:24;4.22;;;1.77;;
28822;SDS011;15961;54.678;9.110;2024-03-29T08:49:09;3.70;;;2.20;;
28822;SDS011;15961;54.678;9.110;2024-03-29T08:51:55;4.82;;;2.10;;
28822;SDS011;15961;54.678;9.110;2024-03-29T08:54:41;4.13;;;2.78;;
28822;SDS011;15961;54.678;9.110;2024-03-29T08:57:27;5.55;;;2.05;;
28822;SDS011;15961;54.678;9.110;2024-03-29T09:00:13;4.05;;;2.08;;
28822;SDS011;15961;54.678;9.110;2024-03-29T09:02:59;2.33;;;2.05;;
28822;SDS011;15961;54.678;9.110;2024-03-29T09:05:44;2.75;;;1.73;;
28822;SDS011;15961;54.678;9.110;2024-03-29T09:08:30;3.53;;;1.90;;
28822;SDS011;15961;54.678;9.110;2024-03-29T09:11:16;2.90;;;1.63;;
28822;SDS011;15961;54.678;9.110;2024-03-29T09:14:01;4.07;;;1.80;;
28822;SDS011;15961;54.678;9.110;2024-03-29T09:16:49;10.57;;;2.05;;
28822;SDS011;15961;54.678;9.110;2024-03-29T09:19:34;5.70;;;2.10;;
28822;SDS011;15961;54.678;9.110;2024-03-29T09:22:20;4.22;;;1.88;;
28822;SDS011;15961;54.678;9.110;2024-03-29T09:25:06;2.70;;;1.70;;
28822;SDS011;15961;54.678;9.110;2024-03-29T09:27:54;4.43;;;2.38;;
28822;SDS011;15961;54.678;9.110;2024-03-29T09:30:40;4.60;;;1.70;;
28822;SDS011;15961;54.678;9.110;2024-03-29T09:33:25;3.28;;;2.13;;
28822;SDS011;15961;54.678;9.110;2024-03-29T09:36:11;2.63;;;1.75;;
28822;SDS011;15961;54.678;9.110;2024-03-29T09:38:57;3.00;;;2.10;;
28822;SDS011;15961;54.678;9.110;2024-03-29T09:41:43;2.80;;;2.00;;
28822;SDS011;15961;54.678;9.110;2024-03-29T09:44:31;3.65;;;2.10;;
28822;SDS011;15961;54.678;9.110;2024-03-29T09:47:17;2.97;;;1.80;;
28822;SDS011;15961;54.678;9.110;2024-03-29T09:50:02;7.47;;;2.20;;
28822;SDS011;15961;54.678;9.110;2024-03-29T09:52:49;3.88;;;1.92;;
28822;SDS011;15961;54.678;9.110;2024-03-29T09:55:35;3.17;;;2.22;;
28822;SDS011;15961;54.678;9.110;2024-03-29T09:58:22;8.43;;;2.72;;
28822;SDS011;15961;54.678;9.110;2024-03-29T10:01:08;5.50;;;2.00;;
28822;SDS011;15961;54.678;9.110;2024-03-29T10:03:55;3.72;;;2.15;;
28822;SDS011;15961;54.678;9.110;2024-03-29T10:06:41;4.32;;;2.30;;
28822;SDS011;15961;54.678;9.110;2024-03-29T10:09:30;4.32;;;1.92;;
28822;SDS011;15961;54.678;9.110;2024-03-29T10:12:20;6.55;;;2.58;;
28822;SDS011;15961;54.678;9.110;2024-03-29T10:15:06;7.13;;;2.00;;
28822;SDS011;15961;54.678;9.110;2024-03-29T10:17:59;5.78;;;1.67;;
28822;SDS011;15961;54.678;9.110;2024-03-29T10:20:45;3.88;;;1.90;;
28822;SDS011;15961;54.678;9.110;2024-03-29T10:23:31;2.97;;;1.98;;
28822;SDS011;15961;54.678;9.110;2024-03-29T10:26:17;8.45;;;2.00;;
28822;SDS011;15961;54.678;9.110;2024-03-29T10:29:03;5.97;;;2.03;;
28822;SDS011;15961;54.678;9.110;2024-03-29T10:31:49;1.55;;;1.40;;
28822;SDS011;15961;54.678;9.110;2024-03-29T10:34:37;4.13;;;1.65;;
28822;SDS011;15961;54.678;9.110;2024-03-29T10:37:23;2.83;;;1.75;;
28822;SDS011;15961;54.678;9.110;2024-03-29T10:40:14;2.85;;;1.60;;
28822;SDS011;15961;54.678;9.110;2024-03-29T10:43:01;3.45;;;1.60;;
28822;SDS011;15961;54.678;9.110;2024-03-29T10:45:50;2.72;;;1.55;;
28822;SDS011;15961;54.678;9.110;2024-03-29T10:48:44;3.35;;;1.83;;
28822;SDS011;15961;54.678;9.110;2024-03-29T10:51:31;3.35;;;2.45;;
28822;SDS011;15961;54.678;9.110;2024-03-29T10:54:16;4.03;;;1.50;;
28822;SDS011;15961;54.678;9.110;2024-03-29T10:57:06;2.50;;;1.63;;
28822;SDS011;15961;54.678;9.110;2024-03-29T11:00:11;3.45;;;1.33;;
28822;SDS011;15961;54.678;9.110;2024-03-29T11:06:04;2.88;;;1.40;;
28822;SDS011;15961;54.678;9.110;2024-03-29T11:08:49;3.00;;;1.83;;
28822;SDS011;15961;54.678;9.110;2024-03-29T11:11:37;4.10;;;1.90;;
28822;SDS011;15961;54.678;9.110;2024-03-29T11:14:27;5.50;;;1.90;;
28822;SDS011;15961;54.678;9.110;2024-03-29T11:17:34;2.08;;;1.60;;
28822;SDS011;15961;54.678;9.110;2024-03-29T11:20:24;2.13;;;1.25;;
28822;SDS011;15961;54.678;9.110;2024-03-29T11:23:19;1.83;;;1.52;;
28822;SDS011;15961;54.678;9.110;2024-03-29T11:26:05;1.50;;;1.40;;
28822;SDS011;15961;54.678;9.110;2024-03-29T11:28:52;1.88;;;1.58;;
28822;SDS011;15961;54.678;9.110;2024-03-29T11:31:38;1.73;;;1.25;;
28822;SDS011;15961;54.678;9.110;2024-03-29T11:34:24;1.98;;;1.83;;
28822;SDS011;15961;54.678;9.110;2024-03-29T11:37:10;4.35;;;1.85;;
28822;SDS011;15961;54.678;9.110;2024-03-29T11:39:58;2.63;;;1.58;;
28822;SDS011;15961;54.678;9.110;2024-03-29T11:42:46;1.85;;;1.35;;
28822;SDS011;15961;54.678;9.110;2024-03-29T11:45:32;3.45;;;1.80;;
28822;SDS011;15961;54.678;9.110;2024-03-29T11:48:20;2.20;;;1.50;;
28822;SDS011;15961;54.678;9.110;2024-03-29T11:51:11;2.53;;;1.58;;
28822;SDS011;15961;54.678;9.110;2024-03-29T11:54:00;1.52;;;1.42;;
28822;SDS011;15961;54.678;9.110;2024-03-29T11:56:47;3.08;;;1.40;;
28822;SDS011;15961;54.678;9.110;2024-03-29T11:59:33;3.00;;;0.90;;
28822;SDS011;15961;54.678;9.110;2024-03-29T12:02:18;2.08;;;1.70;;
28822;SDS011;15961;54.678;9.110;2024-03-29T12:05:07;1.95;;;1.65;;
28822;SDS011;15961;54.678;9.110;2024-03-29T12:07:56;4.68;;;1.80;;
28822;SDS011;15961;54.678;9.110;2024-03-29T12:10:42;2.72;;;1.80;;
28822;SDS011;15961;54.678;9.110;2024-03-29T12:13:28;4.53;;;1.70;;
28822;SDS011;15961;54.678;9.110;2024-03-29T12:16:14;1.90;;;1.52;;
28822;SDS011;15961;54.678;9.110;2024-03-29T12:19:00;1.85;;;1.48;;
28822;SDS011;15961;54.678;9.110;2024-03-29T12:21:46;4.90;;;1.95;;
28822;SDS011;15961;54.678;9.110;2024-03-29T12:24:31;3.75;;;1.63;;
28822;SDS011;15961;54.678;9.110;2024-03-29T12:27:17;1.98;;;1.77;;
28822;SDS011;15961;54.678;9.110;2024-03-29T12:30:03;3.67;;;1.73;;
28822;SDS011;15961;54.678;9.110;2024-03-29T12:32:59;1.95;;;1.83;;
28822;SDS011;15961;54.678;9.110;2024-03-29T12:35:52;3.95;;;1.65;;
28822;SDS011;15961;54.678;9.110;2024-03-29T12:38:41;2.50;;;1.63;;
28822;SDS011;15961;54.678;9.110;2024-03-29T12:41:28;2.65;;;1.60;;
28822;SDS011;15961;54.678;9.110;2024-03-29T12:44:14;2.95;;;2.42;;
28822;SDS011;15961;54.678;9.110;2024-03-29T12:47:00;3.60;;;1.88;;
28822;SDS011;15961;54.678;9.110;2024-03-29T12:49:46;2.20;;;1.85;;
28822;SDS011;15961;54.678;9.110;2024-03-29T12:52:36;2.55;;;1.70;;
28822;SDS011;15961;54.678;9.110;2024-03-29T12:55:25;2.47;;;1.55;;
28822;SDS011;15961;54.678;9.110;2024-03-29T12:58:21;3.63;;;1.40;;
28822;SDS011;15961;54.678;9.110;2024-03-29T13:01:08;3.85;;;1.73;;
28822;SDS011;15961;54.678;9.110;2024-03-29T13:03:55;2.95;;;1.83;;
28822;SDS011;15961;54.678;9.110;2024-03-29T13:06:40;2.30;;;1.73;;
28822;SDS011;15961;54.678;9.110;2024-03-29T13:09:26;2.50;;;1.70;;
28822;SDS011;15961;54.678;9.110;2024-03-29T13:12:12;1.80;;;1.52;;
28822;SDS011;15961;54.678;9.110;2024-03-29T13:15:01;2.60;;;1.45;;
28822;SDS011;15961;54.678;9.110;2024-03-29T13:17:49;2.15;;;1.92;;
28822;SDS011;15961;54.678;9.110;2024-03-29T13:20:36;3.05;;;1.92;;
28822;SDS011;15961;54.678;9.110;2024-03-29T13:23:26;3.70;;;1.60;;
28822;SDS011;15961;54.678;9.110;2024-03-29T13:26:11;2.80;;;1.90;;
28822;SDS011;15961;54.678;9.110;2024-03-29T13:28:57;2.65;;;1.73;;
28822;SDS011;15961;54.678;9.110;2024-03-29T13:31:43;3.78;;;2.30;;
28822;SDS011;15961;54.678;9.110;2024-03-29T13:34:29;2.67;;;1.88;;
28822;SDS011;15961;54.678;9.110;2024-03-29T13:37:14;4.53;;;3.25;;
28822;SDS011;15961;54.678;9.110;2024-03-29T13:40:00;4.80;;;2.30;;
28822;SDS011;15961;54.678;9.110;2024-03-29T13:42:46;3.28;;;2.40;;
28822;SDS011;15961;54.678;9.110;2024-03-29T13:45:31;4.65;;;2.60;;
28822;SDS011;15961;54.678;9.110;2024-03-29T13:48:17;2.85;;;2.17;;
28822;SDS011;15961;54.678;9.110;2024-03-29T13:51:03;2.40;;;2.20;;
28822;SDS011;15961;54.678;9.110;2024-03-29T13:53:49;3.08;;;2.33;;
28822;SDS011;15961;54.678;9.110;2024-03-29T13:56:34;4.93;;;2.10;;
28822;SDS011;15961;54.678;9.110;2024-03-29T13:59:20;2.47;;;2.28;;
28822;SDS011;15961;54.678;9.110;2024-03-29T14:02:06;2.72;;;2.10;;
28822;SDS011;15961;54.678;9.110;2024-03-29T14:04:52;2.70;;;2.45;;
28822;SDS011;15961;54.678;9.110;2024-03-29T14:07:37;2.95;;;2.38;;
28822;SDS011;15961;54.678;9.110;2024-03-29T14:10:23;2.65;;;2.45;;
28822;SDS011;15961;54.678;9.110;2024-03-29T14:13:09;3.10;;;2.65;;
28822;SDS011;15961;54.678;9.110;2024-03-29T14:15:54;5.25;;;2.28;;
28822;SDS011;15961;54.678;9.110;2024-03-29T14:18:44;4.03;;;2.50;;
28822;SDS011;15961;54.678;9.110;2024-03-29T14:21:30;3.00;;;2.25;;
28822;SDS011;15961;54.678;9.110;2024-03-29T14:24:16;3.58;;;2.78;;
28822;SDS011;15961;54.678;9.110;2024-03-29T14:27:02;3.80;;;2.17;;
28822;SDS011;15961;54.678;9.110;2024-03-29T14:29:51;3.40;;;2.47;;
28822;SDS011;15961;54.678;9.110;2024-03-29T14:32:36;3.08;;;2.38;;
28822;SDS011;15961;54.678;9.110;2024-03-29T14:35:22;3.25;;;2.33;;
28822;SDS011;15961;54.678;9.110;2024-03-29T14:38:09;3.65;;;2.30;;
28822;SDS011;15961;54.678;9.110;2024-03-29T14:40:55;3.83;;;2.30;;
28822;SDS011;15961;54.678;9.110;2024-03-29T14:43:40;4.68;;;2.10;;
28822;SDS011;15961;54.678;9.110;2024-03-29T14:46:26;4.22;;;2.35;;
28822;SDS011;15961;54.678;9.110;2024-03-29T14:49:12;2.65;;;2.22;;
28822;SDS011;15961;54.678;9.110;2024-03-29T14:51:59;3.00;;;2.20;;
28822;SDS011;15961;54.678;9.110;2024-03-29T14:54:44;4.00;;;2.35;;
28822;SDS011;15961;54.678;9.110;2024-03-29T14:57:30;3.97;;;2.55;;
28822;SDS011;15961;54.678;9.110;2024-03-29T15:00:16;4.07;;;2.50;;
28822;SDS011;15961;54.678;9.110;2024-03-29T15:03:02;4.82;;;2.40;;
28822;SDS011;15961;54.678;9.110;2024-03-29T15:05:48;5.45;;;2.00;;
28822;SDS011;15961;54.678;9.110;2024-03-29T15:08:33;3.83;;;2.65;;
28822;SDS011;15961;54.678;9.110;2024-03-29T15:11:19;7.13;;;2.60;;
28822;SDS011;15961;54.678;9.110;2024-03-29T15:14:04;3.50;;;2.65;;
28822;SDS011;15961;54.678;9.110;2024-03-29T15:16:51;6.80;;;2.03;;
28822;SDS011;15961;54.678;9.110;2024-03-29T15:19:37;4.72;;;3.13;;
28822;SDS011;15961;54.678;9.110;2024-03-29T15:22:23;5.00;;;2.40;;
28822;SDS011;15961;54.678;9.110;2024-03-29T15:25:09;3.25;;;2.22;;
28822;SDS011;15961;54.678;9.110;2024-03-29T15:27:54;3.72;;;2.70;;
28822;SDS011;15961;54.678;9.110;2024-03-29T15:30:55;4.13;;;2.75;;
28822;SDS011;15961;54.678;9.110;2024-03-29T15:33:43;3.88;;;2.40;;
28822;SDS011;15961;54.678;9.110;2024-03-29T15:36:28;2.70;;;2.50;;
28822;SDS011;15961;54.678;9.110;2024-03-29T15:39:15;5.07;;;2.65;;
28822;SDS011;15961;54.678;9.110;2024-03-29T15:42:05;4.10;;;3.15;;
28822;SDS011;15961;54.678;9.110;2024-03-29T15:44:50;4.22;;;3.20;;
28822;SDS011;15961;54.678;9.110;2024-03-29T15:47:36;5.72;;;2.65;;
28822;SDS011;15961;54.678;9.110;2024-03-29T15:50:21;7.70;;;2.75;;
28822;SDS011;15961;54.678;9.110;2024-03-29T15:53:07;4.22;;;2.30;;
28822;SDS011;15961;54.678;9.110;2024-03-29T15:55:53;2.95;;;2.13;;
28822;SDS011;15961;54.678;9.110;2024-03-29T15:58:38;4.30;;;2.70;;
28822;SDS011;15961;54.678;9.110;2024-03-29T16:01:24;3.80;;;1.65;;
28822;SDS011;15961;54.678;9.110;2024-03-29T16:04:10;2.15;;;1.73;;
28822;SDS011;15961;54.678;9.110;2024-03-29T16:06:56;3.70;;;2.35;;
28822;SDS011;15961;54.678;9.110;2024-03-29T16:09:41;4.13;;;2.45;;
28822;SDS011;15961;54.678;9.110;2024-03-29T16:12:27;4.72;;;2.33;;
28822;SDS011;15961;54.678;9.110;2024-03-29T16:15:12;3.72;;;2.38;;
28822;SDS011;15961;54.678;9.110;2024-03-29T16:17:58;4.18;;;1.88;;
28822;SDS011;15961;54.678;9.110;2024-03-29T16:20:44;3.92;;;2.33;;
28822;SDS011;15961;54.678;9.110;2024-03-29T16:23:30;3.28;;;2.45;;
28822;SDS011;15961;54.678;9.110;2024-03-29T16:26:18;2.15;;;1.95;;
28822;SDS011;15961;54.678;9.110;2024-03-29T16:29:03;2.85;;;2.13;;
28822;SDS011;15961;54.678;9.110;2024-03-29T16:31:55;2.83;;;1.83;;
28822;SDS011;15961;54.678;9.110;2024-03-29T16:34:40;3.67;;;2.17;;
28822;SDS011;15961;54.678;9.110;2024-03-29T16:37:27;2.20;;;1.67;;
28822;SDS011;15961;54.678;9.110;2024-03-29T16:40:13;2.97;;;2.13;;
28822;SDS011;15961;54.678;9.110;2024-03-29T16:42:58;3.75;;;2.20;;
28822;SDS011;15961;54.678;9.110;2024-03-29T16:45:44;3.38;;;2.20;;
28822;SDS011;15961;54.678;9.110;2024-03-29T16:48:30;2.55;;;2.03;;